Time;durP1;ratioP1;P1;durP2;ratioP2;P2;SDS_P1;SDS_P2;PMS_P1;PMS_P2;Temp;Humidity;BMP_temperature;BMP_pressure;BME280_temperature;BME280_humidity;BME280_pressure;Samples;Min_cycle;Max_cycle;Signal;HPM_P1;HPM_P2
2023/07/10 00:00:57;;;;;;;10.13;5.12;;;;;;;26.03;52.09;98509.34;4381250;32;20083;-79
2023/07/10 00:03:24;;;;;;;11.32;5.00;;;;;;;26.10;51.80;98507.78;4394591;32;20150;-79
2023/07/10 00:05:50;;;;;;;12.90;5.03;;;;;;;25.99;52.00;98504.53;4394850;32;20106;-79
2023/07/10 00:08:17;;;;;;;10.50;5.18;;;;;;;26.16;51.17;98503.69;4381259;32;20102;-79
2023/07/10 00:10:44;;;;;;;12.02;5.10;;;;;;;26.18;51.00;98507.03;4394122;32;20138;-79
2023/07/10 00:13:12;;;;;;;10.43;4.85;;;;;;;26.41;50.16;98508.22;4394753;32;20150;-79
2023/07/10 00:15:39;;;;;;;10.82;5.47;;;;;;;26.22;50.25;98511.84;4381260;32;20114;-79
2023/07/10 00:18:16;;;;;;;12.55;5.18;;;;;;;26.14;50.63;98511.75;4394407;32;20400;-79
2023/07/10 00:20:47;;;;;;;10.80;4.75;;;;;;;26.20;50.54;98502.41;4394589;32;20090;-79
2023/07/10 00:23:15;;;;;;;9.20;4.55;;;;;;;26.07;51.21;98508.09;4381415;32;20169;-79
2023/07/10 00:25:42;;;;;;;9.00;4.43;;;;;;;25.93;51.47;98513.88;4394646;32;20130;-79
2023/07/10 00:28:20;;;;;;;10.55;5.03;;;;;;;26.16;51.07;98504.53;4394584;32;20613;-79
2023/07/10 00:30:49;;;;;;;12.95;4.50;;;;;;;26.22;50.52;98506.53;4394276;32;20104;-79
2023/07/10 00:33:17;;;;;;;8.68;4.07;;;;;;;25.94;51.48;98512.91;4394581;32;20114;-79
2023/07/10 00:35:45;;;;;;;8.90;4.28;;;;;;;25.73;52.12;98515.84;4394456;32;20156;-79
2023/07/10 00:38:31;;;;;;;9.55;4.70;;;;;;;25.89;52.28;98513.38;4394185;32;20102;-79
2023/07/10 00:41:01;;;;;;;10.88;5.20;;;;;;;25.96;52.18;98513.59;4394380;32;20149;-79
2023/07/10 00:43:41;;;;;;;11.18;4.85;;;;;;;25.86;52.46;98518.12;4381043;32;20107;-79
2023/07/10 00:46:41;;;;;;;9.40;4.32;;;;;;;25.46;53.98;98510.56;4380519;32;20110;-79
2023/07/10 00:49:12;;;;;;;10.60;4.82;;;;;;;25.36;54.18;98505.34;4374923;32;20464;-79
2023/07/10 00:51:56;;;;;;;11.05;4.85;;;;;;;25.38;53.66;98506.03;4393957;32;20112;-79
2023/07/10 00:54:32;;;;;;;10.27;5.20;;;;;;;25.43;53.50;98510.88;4368454;32;20106;-79
2023/07/10 00:57:02;;;;;;;12.68;4.62;;;;;;;25.25;53.92;98513.47;4394435;32;20128;-79
2023/07/10 00:59:29;;;;;;;10.68;4.95;;;;;;;25.31;54.03;98508.44;4394164;32;20081;-78
2023/07/10 01:02:20;;;;;;;9.25;4.25;;;;;;;25.53;53.33;98511.66;4396175;32;20078;-79
2023/07/10 01:04:58;;;;;;;10.98;4.78;;;;;;;25.64;52.93;98506.16;4392518;32;20476;-79
2023/07/10 01:07:28;;;;;;;10.45;4.93;;;;;;;25.55;53.21;98507.87;4382728;32;20174;-79
2023/07/10 01:10:01;;;;;;;10.82;4.62;;;;;;;25.42;53.75;98511.88;4396011;32;20159;-79
2023/07/10 01:12:30;;;;;;;14.40;4.82;;;;;;;25.53;53.23;98512.50;4395651;32;20090;-79
2023/07/10 01:14:57;;;;;;;10.70;4.87;;;;;;;25.24;54.28;98519.72;4382494;32;20177;-78
2023/07/10 01:17:24;;;;;;;10.88;5.43;;;;;;;25.08;54.60;98517.72;4396035;32;20160;-79
2023/07/10 01:19:56;;;;;;;13.60;5.18;;;;;;;25.20;54.46;98511.28;4381963;32;20086;-79
2023/07/10 01:22:23;;;;;;;9.90;5.05;;;;;;;25.52;53.39;98510.81;4382421;32;20400;-79
2023/07/10 01:24:52;;;;;;;10.80;5.03;;;;;;;25.68;52.83;98500.41;4382364;32;20120;-79
2023/07/10 01:27:20;;;;;;;9.23;4.85;;;;;;;25.59;53.07;98508.41;4395476;32;20095;-79
2023/07/10 01:29:57;;;;;;;11.55;5.05;;;;;;;25.71;52.62;98499.31;4382270;32;20173;-79
2023/07/10 01:32:24;;;;;;;13.35;5.37;;;;;;;25.64;52.80;98507.00;4395933;32;20077;-79
2023/07/10 01:34:54;;;;;;;10.55;4.87;;;;;;;25.39;53.57;98503.22;4381898;32;20102;-79
2023/07/10 01:37:21;;;;;;;10.00;4.90;;;;;;;25.45;53.42;98493.06;4382362;32;20116;-79
2023/07/10 01:39:51;;;;;;;11.57;5.15;;;;;;;25.83;52.24;98498.09;4395725;32;20106;-79
2023/07/10 01:42:18;;;;;;;11.95;5.22;;;;;;;25.73;52.18;98499.97;4395569;32;20094;-79
2023/07/10 01:44:47;;;;;;;11.98;4.90;;;;;;;26.17;51.04;98495.62;4395861;32;20409;-79
2023/07/10 01:47:15;;;;;;;11.65;5.20;;;;;;;26.21;50.79;98502.25;4395779;32;20125;-79
2023/07/10 01:49:51;;;;;;;11.02;5.00;;;;;;;25.97;51.66;98498.56;4395544;32;20152;-79
2023/07/10 01:52:19;;;;;;;10.18;4.68;;;;;;;25.73;52.69;98501.78;4395707;32;20094;-79
2023/07/10 01:54:46;;;;;;;11.12;4.87;;;;;;;26.01;52.06;98498.09;4395456;32;20090;-79
2023/07/10 01:57:15;;;;;;;10.95;5.10;;;;;;;25.64;53.32;98493.78;4382230;32;20119;-79
2023/07/10 01:59:42;;;;;;;10.00;5.03;;;;;;;25.67;53.56;98500.56;4395612;32;20098;-79
2023/07/10 02:02:09;;;;;;;10.32;5.15;;;;;;;25.81;53.10;98491.31;4395411;32;20094;-79
2023/07/10 02:04:36;;;;;;;11.63;5.25;;;;;;;25.22;53.86;98496.12;4395767;32;20094;-79
2023/07/10 02:07:04;;;;;;;10.65;5.07;;;;;;;25.06;54.87;98491.47;4395548;32;20118;-79
2023/07/10 02:09:31;;;;;;;9.30;4.62;;;;;;;25.31;54.13;98484.69;4395089;32;20903;-79
2023/07/10 02:11:59;;;;;;;11.52;4.90;;;;;;;25.19;54.34;98488.47;4395088;32;20109;-78
2023/07/10 02:14:26;;;;;;;10.30;5.10;;;;;;;25.20;54.26;98482.25;4395656;32;20098;-79
2023/07/10 02:16:53;;;;;;;11.00;4.90;;;;;;;24.99;54.37;98489.50;4395203;32;20107;-79
2023/07/10 02:19:21;;;;;;;11.93;4.90;;;;;;;24.78;55.18;98481.84;4395624;32;20090;-79
2023/07/10 02:21:48;;;;;;;11.88;5.12;;;;;;;24.99;54.56;98482.44;4395404;32;20121;-79
2023/07/10 02:24:15;;;;;;;11.60;5.20;;;;;;;24.96;54.85;98485.34;4395345;32;20164;-79
2023/07/10 02:26:42;;;;;;;11.10;5.18;;;;;;;24.80;55.47;98482.53;4395516;32;20090;-79
2023/07/10 02:29:09;;;;;;;10.90;5.50;;;;;;;25.07;54.56;98484.37;4395513;32;20090;-79
2023/07/10 02:31:36;;;;;;;9.77;5.00;;;;;;;24.84;55.36;98477.78;4395020;32;20083;-79
2023/07/10 02:34:03;;;;;;;11.20;5.47;;;;;;;25.24;54.16;98486.22;4395588;32;20157;-79
2023/07/10 02:36:30;;;;;;;10.40;5.30;;;;;;;25.71;52.57;98483.44;4395493;32;20393;-79
2023/07/10 02:38:57;;;;;;;13.95;4.80;;;;;;;25.48;53.14;98476.91;4395100;32;20094;-79
2023/07/10 02:41:24;;;;;;;12.93;4.95;;;;;;;25.57;52.61;98476.84;4395242;32;20107;-79
2023/07/10 02:43:51;;;;;;;13.65;5.47;;;;;;;25.64;52.56;98477.09;4395131;32;20106;-79
2023/07/10 02:46:18;;;;;;;11.48;5.03;;;;;;;25.73;52.14;98472.72;4395497;32;20174;-79
2023/07/10 02:48:45;;;;;;;10.43;5.12;;;;;;;25.25;53.48;98474.69;4395349;32;20144;-79
2023/07/10 02:51:12;;;;;;;12.40;5.35;;;;;;;25.27;53.46;98478.00;4394980;32;20108;-79
2023/07/10 02:53:39;;;;;;;11.25;5.53;;;;;;;25.57;52.41;98473.38;4395419;32;20116;-79
2023/07/10 02:56:06;;;;;;;10.55;5.25;;;;;;;25.31;53.21;98482.03;4381792;32;20157;-79
2023/07/10 02:58:33;;;;;;;11.63;5.30;;;;;;;24.96;54.30;98481.88;4394992;32;20432;-79
2023/07/10 03:01:02;;;;;;;10.90;5.43;;;;;;;25.12;53.93;98486.59;4395328;32;20141;-79
2023/07/10 03:03:29;;;;;;;10.90;5.05;;;;;;;24.98;54.24;98483.41;4395332;32;20122;-79
2023/07/10 03:05:58;;;;;;;11.77;5.25;;;;;;;24.80;54.74;98487.81;4394868;32;20112;-79
2023/07/10 03:08:26;;;;;;;12.73;5.50;;;;;;;24.76;55.03;98478.47;4395211;32;20087;-79
2023/07/10 03:11:04;;;;;;;11.25;5.32;;;;;;;24.53;55.78;98476.19;4394943;32;20078;-79
2023/07/10 03:13:31;;;;;;;10.52;5.53;;;;;;;24.61;55.60;98477.31;4394908;32;20087;-79
2023/07/10 03:16:05;;;;;;;10.82;5.55;;;;;;;24.35;55.96;98482.34;4395258;32;20144;-79
2023/07/10 03:18:33;;;;;;;11.70;5.20;;;;;;;24.94;54.41;98483.84;4395260;32;20481;-79
2023/07/10 03:21:00;;;;;;;11.70;5.65;;;;;;;24.72;55.05;98477.13;4394806;32;20173;-79
2023/07/10 03:23:26;;;;;;;11.57;5.90;;;;;;;24.26;57.02;98473.47;4394545;32;20154;-79
2023/07/10 03:25:54;;;;;;;11.23;5.50;;;;;;;24.23;57.41;98474.56;4395370;32;20113;-79
2023/07/10 03:28:21;;;;;;;11.45;5.57;;;;;;;24.04;57.76;98476.41;4395669;32;20377;-79
2023/07/10 03:30:48;;;;;;;13.30;5.87;;;;;;;24.57;56.10;98466.22;4394934;32;20082;-79
2023/07/10 03:33:16;;;;;;;11.65;5.80;;;;;;;24.66;55.81;98467.13;4394857;32;20094;-79
2023/07/10 03:35:48;;;;;;;12.57;5.72;;;;;;;25.21;54.02;98464.59;4381528;32;20563;-79
2023/07/10 03:38:16;;;;;;;13.50;5.20;;;;;;;25.43;53.37;98468.63;4395211;32;20460;-79
2023/07/10 03:40:54;;;;;;;11.57;5.65;;;;;;;25.35;53.58;98470.19;4394587;32;20090;-79
2023/07/10 03:43:21;;;;;;;11.73;5.45;;;;;;;25.30;53.81;98476.87;4395108;32;20113;-79
2023/07/10 03:45:48;;;;;;;11.25;5.65;;;;;;;25.17;54.23;98481.69;4395188;32;20110;-79
2023/07/10 03:48:15;;;;;;;13.02;5.90;;;;;;;25.42;53.54;98481.00;4394644;32;20153;-79
2023/07/10 03:50:42;;;;;;;10.73;5.28;;;;;;;25.60;53.10;98473.06;4394880;32;20144;-79
2023/07/10 03:53:10;;;;;;;11.05;5.22;;;;;;;25.78;52.92;98479.22;4395029;32;20428;-79
2023/07/10 03:55:36;;;;;;;12.02;5.40;;;;;;;25.58;53.82;98467.94;4394585;32;20197;-79
2023/07/10 03:58:22;;;;;;;11.48;5.57;;;;;;;25.63;53.88;98472.78;4394926;32;20098;-79
2023/07/10 04:00:50;;;;;;;12.32;5.05;;;;;;;25.98;52.86;98465.88;4380955;32;20437;-79
2023/07/10 04:03:22;;;;;;;13.15;5.65;;;;;;;26.39;51.59;98469.69;4394908;32;20368;-79
2023/07/10 04:05:52;;;;;;;13.62;5.50;;;;;;;26.47;51.39;98473.19;4394905;32;20164;-79
2023/07/10 04:08:28;;;;;;;12.15;5.30;;;;;;;26.59;51.08;98472.94;4394568;32;20087;-79
2023/07/10 04:10:57;;;;;;;12.30;5.40;;;;;;;27.10;49.98;98464.94;4394618;32;20120;-79
2023/07/10 04:13:24;;;;;;;11.27;5.75;;;;;;;27.52;48.95;98471.19;4394839;32;20109;-79
2023/07/10 04:16:02;;;;;;;11.88;5.40;;;;;;;27.74;48.68;98464.47;4394498;32;20082;-79
2023/07/10 04:18:31;;;;;;;11.43;5.40;;;;;;;28.21;47.52;98465.47;4394766;32;20082;-79
2023/07/10 04:20:59;;;;;;;11.52;4.80;;;;;;;28.50;46.98;98457.00;4380950;32;20081;-79
2023/07/10 04:23:26;;;;;;;12.02;5.07;;;;;;;28.83;46.22;98470.19;4394363;32;20441;-79
2023/07/10 04:25:54;;;;;;;12.05;5.55;;;;;;;29.08;45.83;98460.31;4394732;32;20520;-79
2023/07/10 04:28:21;;;;;;;11.07;5.22;;;;;;;29.48;44.90;98456.66;4394545;32;20160;-79
2023/07/10 04:30:48;;;;;;;11.50;5.30;;;;;;;29.88;44.00;98457.38;4394295;32;20154;-79
2023/07/10 04:33:16;;;;;;;13.60;5.35;;;;;;;30.12;43.34;98462.53;4394618;32;20110;-79
2023/07/10 04:35:43;;;;;;;10.57;5.22;;;;;;;30.48;42.68;98460.00;4394634;32;20095;-79
2023/07/10 04:38:10;;;;;;;9.70;4.82;;;;;;;30.68;42.25;98464.84;4394192;32;20087;-80
2023/07/10 04:40:37;;;;;;;10.32;5.68;;;;;;;30.95;42.53;98466.03;4394293;32;20104;-79
2023/07/10 04:43:04;;;;;;;10.38;4.82;;;;;;;31.47;41.03;98473.03;4394168;32;20121;-80
2023/07/10 04:45:31;;;;;;;11.77;5.65;;;;;;;31.43;41.76;98474.44;4380820;32;20162;-79
2023/07/10 04:47:58;;;;;;;9.73;5.00;;;;;;;31.32;42.30;98476.56;4394435;32;20128;-80
2023/07/10 04:50:25;;;;;;;11.40;5.32;;;;;;;31.51;41.92;98483.16;4394005;32;20078;-80
2023/07/10 04:52:52;;;;;;;9.90;5.10;;;;;;;31.50;42.08;98478.00;4394353;32;20253;-79
2023/07/10 04:55:19;;;;;;;10.55;5.78;;;;;;;31.78;41.60;98467.44;4394354;32;20094;-79
2023/07/10 04:57:46;;;;;;;13.80;5.62;;;;;;;31.52;41.54;98475.97;4394076;32;20158;-79
2023/07/10 05:00:13;;;;;;;11.82;5.47;;;;;;;30.72;43.49;98476.78;4394287;32;20090;-79
2023/07/10 05:02:40;;;;;;;10.63;5.30;;;;;;;30.92;43.80;98474.38;4394114;32;20106;-79
2023/07/10 05:05:07;;;;;;;11.75;5.10;;;;;;;31.29;43.56;98476.13;4393976;32;20102;-79
2023/07/10 05:07:34;;;;;;;10.00;5.28;;;;;;;31.72;42.32;98476.19;4394059;32;20433;-79
2023/07/10 05:10:01;;;;;;;9.63;4.90;;;;;;;32.30;40.92;98472.44;4393881;32;20077;-79
2023/07/10 05:12:28;;;;;;;10.45;4.97;;;;;;;33.04;39.72;98483.44;4393625;32;20460;-79
2023/07/10 05:14:55;;;;;;;11.10;5.10;;;;;;;33.57;38.62;98494.34;4394044;32;20149;-80
2023/07/10 05:17:22;;;;;;;10.52;4.97;;;;;;;34.06;37.45;98487.88;4393963;32;20087;-79
2023/07/10 05:19:49;;;;;;;11.05;5.40;;;;;;;34.03;37.27;98493.66;4393478;32;20155;-80
2023/07/10 05:22:16;;;;;;;10.93;4.95;;;;;;;33.54;37.81;98499.28;4393861;32;20143;-79
2023/07/10 05:24:43;;;;;;;14.98;5.40;;;;;;;33.06;39.23;98499.25;4393933;32;20094;-79
2023/07/10 05:27:10;;;;;;;14.55;5.47;;;;;;;33.20;38.98;98498.31;4393472;32;20185;-79
2023/07/10 05:29:37;;;;;;;10.20;4.65;;;;;;;33.52;38.05;98499.50;4393943;32;20122;-80
2023/07/10 05:32:04;;;;;;;10.13;5.30;;;;;;;33.45;39.30;98493.28;4393451;32;20452;-80
2023/07/10 05:34:31;;;;;;;9.77;5.12;;;;;;;33.32;38.02;98494.03;4393643;32;20103;-80
2023/07/10 05:36:58;;;;;;;11.43;5.55;;;;;;;34.52;36.67;98489.75;4393370;32;20825;-80
2023/07/10 05:39:25;;;;;;;9.32;5.03;;;;;;;34.78;35.31;98487.03;4394677;32;20197;-79
2023/07/10 05:41:52;;;;;;;10.23;5.22;;;;;;;35.10;34.72;98483.69;4393571;32;20417;-80
2023/07/10 05:44:19;;;;;;;12.18;5.30;;;;;;;35.46;34.94;98493.88;4393825;32;20102;-80
2023/07/10 05:46:46;;;;;;;10.30;5.25;;;;;;;35.92;33.96;98483.69;4395251;32;20090;-78
2023/07/10 05:49:13;;;;;;;10.88;4.95;;;;;;;35.95;34.36;98487.81;4399048;32;20118;-77
2023/07/10 05:51:40;;;;;;;11.12;5.18;;;;;;;36.36;33.59;98492.66;4398943;32;20172;-78
2023/07/10 05:54:06;;;;;;;11.40;5.15;;;;;;;36.40;33.90;98488.50;4396251;32;20098;-80
2023/07/10 05:56:33;;;;;;;11.30;5.12;;;;;;;35.90;34.47;98484.94;4382134;32;20086;-81
2023/07/10 05:59:01;;;;;;;10.75;5.25;;;;;;;35.14;35.82;98488.41;4401826;32;20078;-81
2023/07/10 06:01:28;;;;;;;10.02;5.35;;;;;;;35.39;35.34;98488.50;4406589;32;20094;-81
2023/07/10 06:03:55;;;;;;;9.20;5.20;;;;;;;35.16;35.46;98497.03;4410030;32;20075;-80
2023/07/10 06:06:22;;;;;;;10.10;5.45;;;;;;;35.22;35.41;98490.84;4410124;32;20077;-81
2023/07/10 06:09:02;;;;;;;10.68;5.20;;;;;;;34.93;36.21;98491.34;4409723;32;20074;-81
2023/07/10 06:11:29;;;;;;;9.75;5.10;;;;;;;34.67;36.21;98490.38;4409926;32;20118;-81
2023/07/10 06:13:56;;;;;;;9.52;4.85;;;;;;;34.71;35.88;98490.75;4409672;32;20075;-80
2023/07/10 06:16:23;;;;;;;11.82;5.03;;;;;;;35.00;35.60;98492.16;4409714;32;20067;-80
2023/07/10 06:18:55;;;;;;;9.63;5.22;;;;;;;34.96;35.79;98496.28;4410073;32;20119;-81
2023/07/10 06:21:22;;;;;;;11.02;5.32;;;;;;;34.39;36.37;98495.97;4409384;32;20089;-81
2023/07/10 06:23:50;;;;;;;10.68;4.97;;;;;;;34.28;36.88;98493.03;4409163;32;20081;-80
2023/07/10 06:26:17;;;;;;;10.25;5.10;;;;;;;34.27;37.26;98491.41;4407936;32;20063;-81
2023/07/10 06:28:45;;;;;;;12.30;5.28;;;;;;;34.26;36.94;98489.75;4406234;32;20063;-80
2023/07/10 06:31:12;;;;;;;9.45;5.00;;;;;;;34.20;37.16;98489.53;4403927;32;20147;-81
2023/07/10 06:33:39;;;;;;;9.43;4.65;;;;;;;33.96;37.82;98489.31;4408460;32;20075;-80
2023/07/10 06:36:07;;;;;;;11.65;5.28;;;;;;;34.08;37.88;98490.34;4409300;32;20074;-80
2023/07/10 06:38:40;;;;;;;11.88;5.43;;;;;;;34.10;38.23;98486.44;4409264;32;20062;-80
2023/07/10 06:41:09;;;;;;;9.88;5.45;;;;;;;34.21;38.11;98493.84;4409219;32;20127;-80
2023/07/10 06:43:39;;;;;;;11.88;5.53;;;;;;;34.67;36.87;98486.88;4405622;32;20667;-79
2023/07/10 06:46:06;;;;;;;12.85;5.43;;;;;;;34.35;37.65;98493.84;4400319;32;20055;-77
2023/07/10 06:48:34;;;;;;;9.82;5.20;;;;;;;33.87;37.98;98488.69;4397296;32;20074;-79
2023/07/10 06:51:01;;;;;;;12.35;5.10;;;;;;;34.22;37.34;98495.50;4399448;32;20160;-79
2023/07/10 06:53:28;;;;;;;10.32;5.35;;;;;;;34.27;37.24;98488.72;4405779;32;20111;-79
2023/07/10 06:56:00;;;;;;;10.88;5.28;;;;;;;34.66;37.34;98488.69;4402522;32;20137;-80
2023/07/10 06:58:31;;;;;;;12.48;5.75;;;;;;;34.79;36.99;98485.19;4403426;32;20078;-79
2023/07/10 07:01:00;;;;;;;11.32;5.72;;;;;;;35.05;36.20;98485.13;4403603;32;20091;-80
2023/07/10 07:03:27;;;;;;;13.62;5.45;;;;;;;34.30;37.71;98488.31;4403024;32;20059;-80
2023/07/10 07:05:54;;;;;;;10.95;5.55;;;;;;;34.60;36.88;98483.38;4388388;32;20095;-81
2023/07/10 07:08:23;;;;;;;14.23;5.55;;;;;;;34.49;37.60;98482.97;4394974;32;20098;-81
2023/07/10 07:10:52;;;;;;;9.88;5.25;;;;;;;34.60;37.44;98486.03;4388016;32;20156;-80
2023/07/10 07:13:20;;;;;;;10.30;5.55;;;;;;;34.30;38.14;98485.63;4397623;32;20106;-80
2023/07/10 07:15:52;;;;;;;9.40;5.03;;;;;;;34.74;37.08;98479.63;4384127;32;20102;-80
2023/07/10 07:18:24;;;;;;;10.20;5.00;;;;;;;35.11;37.24;98480.78;4397140;32;20153;-80
2023/07/10 07:20:55;;;;;;;13.10;5.25;;;;;;;34.88;36.48;98483.09;4398421;32;20098;-80
2023/07/10 07:23:22;;;;;;;10.18;4.93;;;;;;;34.11;37.25;98476.56;4401551;32;20153;-80
2023/07/10 07:25:49;;;;;;;11.30;5.65;;;;;;;34.32;37.73;98489.72;4399818;32;20405;-80
2023/07/10 07:28:16;;;;;;;11.02;4.90;;;;;;;34.41;37.00;98482.34;4396318;32;20156;-81
2023/07/10 07:30:47;;;;;;;10.60;5.22;;;;;;;33.91;37.94;98488.06;4396320;32;20098;-80
2023/07/10 07:33:19;;;;;;;11.60;5.28;;;;;;;33.54;38.70;98489.41;4397165;32;20117;-80
2023/07/10 07:35:47;;;;;;;10.35;5.43;;;;;;;33.25;39.51;98489.69;4395757;32;20089;-80
2023/07/10 07:38:14;;;;;;;10.60;5.32;;;;;;;33.70;39.31;98482.03;4381773;32;20429;-81
2023/07/10 07:40:41;;;;;;;9.27;5.07;;;;;;;34.09;38.43;98479.44;4395067;32;20157;-80
2023/07/10 07:43:08;;;;;;;12.48;5.65;;;;;;;34.25;37.81;98474.72;4396787;32;20168;-80
2023/07/10 07:45:35;;;;;;;11.10;5.70;;;;;;;34.16;37.30;98477.59;4399521;32;20144;-80
2023/07/10 07:48:02;;;;;;;9.68;5.20;;;;;;;34.22;38.12;98474.06;4396267;32;20116;-79
2023/07/10 07:50:29;;;;;;;11.75;5.40;;;;;;;34.55;37.25;98477.78;4396075;32;20115;-80
2023/07/10 07:52:56;;;;;;;12.88;5.57;;;;;;;34.53;36.76;98471.81;4395321;32;20114;-80
2023/07/10 07:55:23;;;;;;;10.98;5.62;;;;;;;34.16;36.87;98466.06;4395458;32;20090;-80
2023/07/10 07:57:50;;;;;;;12.65;5.30;;;;;;;33.92;37.46;98462.13;4395140;32;20145;-79
2023/07/10 08:00:17;;;;;;;20.62;5.37;;;;;;;34.45;36.61;98468.34;4394767;32;20126;-79
2023/07/10 08:02:47;;;;;;;11.77;6.03;;;;;;;34.44;36.15;98468.53;4395011;32;20168;-79
2023/07/10 08:05:14;;;;;;;9.70;5.20;;;;;;;34.66;35.51;98472.62;4395771;32;20086;-81
2023/07/10 08:08:01;;;;;;;9.90;4.82;;;;;;;34.23;36.41;98470.38;4383862;32;20086;-82
2023/07/10 08:10:34;;;;;;;9.10;4.75;;;;;;;34.57;35.43;98471.22;4397961;32;20173;-79
2023/07/10 08:13:03;;;;;;;9.00;4.65;;;;;;;34.48;34.98;98467.09;4408738;32;20090;-81
2023/07/10 08:15:31;;;;;;;10.18;4.80;;;;;;;33.89;35.29;98471.38;4408268;32;20074;-81
2023/07/10 08:17:58;;;;;;;9.00;4.78;;;;;;;33.69;35.58;98469.69;4396049;32;20174;-85
2023/07/10 08:20:25;;;;;;;9.85;4.80;;;;;;;33.89;36.13;98455.34;4395120;32;20543;-79
2023/07/10 08:22:51;;;;;;;10.02;4.95;;;;;;;34.61;35.01;98461.72;4394575;32;20120;-77
2023/07/10 08:25:18;;;;;;;11.30;4.85;;;;;;;34.07;35.52;98457.41;4394674;32;20098;-78
2023/07/10 08:27:46;;;;;;;9.90;5.03;;;;;;;34.60;34.21;98464.59;4394234;32;20119;-81
2023/07/10 08:30:14;;;;;;;11.05;4.87;;;;;;;34.85;33.81;98459.38;4395241;32;20431;-80
2023/07/10 08:32:41;;;;;;;9.82;4.90;;;;;;;34.95;33.79;98460.63;4397179;32;20078;-80
2023/07/10 08:35:08;;;;;;;9.88;5.10;;;;;;;35.31;34.24;98467.28;4399508;32;20086;-79
2023/07/10 08:37:38;;;;;;;9.30;4.60;;;;;;;35.84;33.42;98456.28;4397926;32;20082;-79
2023/07/10 08:40:09;;;;;;;10.73;4.60;;;;;;;35.88;30.77;98439.53;4396215;32;20106;-79
2023/07/10 08:42:36;;;;;;;10.25;5.03;;;;;;;35.67;32.60;98444.41;4396163;32;20145;-79
2023/07/10 08:45:03;;;;;;;11.73;4.75;;;;;;;36.07;31.26;98453.03;4396445;32;20157;-79
2023/07/10 08:47:37;;;;;;;10.07;5.10;;;;;;;35.75;30.54;98444.97;4395502;32;20119;-79
2023/07/10 08:50:11;;;;;;;8.20;4.15;;;;;;;35.39;31.54;98442.91;4395078;32;20118;-79
2023/07/10 08:53:09;;;;;;;9.95;4.87;;;;;;;36.08;32.25;98444.75;4395563;32;20129;-79
2023/07/10 08:55:42;;;;;;;9.32;4.85;;;;;;;35.54;31.63;98448.81;4408322;32;20074;-78
2023/07/10 08:58:23;;;;;;;12.27;5.10;;;;;;;35.29;32.43;98437.16;4395602;32;20062;-79
2023/07/10 09:01:14;;;;;;;10.25;5.07;;;;;;;35.56;32.91;98453.97;4407594;32;20086;-79
2023/07/10 09:03:44;;;;;;;11.00;5.00;;;;;;;35.93;31.14;98445.06;4395108;32;20127;-78
2023/07/10 09:06:24;;;;;;;10.35;5.32;;;;;;;36.54;31.02;98451.56;4395129;32;20066;-78
2023/07/10 09:08:53;;;;;;;9.85;4.55;;;;;;;36.21;30.13;98452.69;4407589;32;20108;-79
2023/07/10 09:11:21;;;;;;;11.00;5.20;;;;;;;36.13;30.07;98442.22;4393609;32;20197;-77
2023/07/10 09:13:57;;;;;;;10.65;4.90;;;;;;;36.31;31.20;98441.44;4408034;32;20066;-78
2023/07/10 09:16:26;;;;;;;10.20;4.90;;;;;;;36.09;32.37;98445.56;4395162;32;20467;-78
2023/07/10 09:19:05;;;;;;;10.10;4.87;;;;;;;36.48;30.96;98453.31;4393495;32;20073;-80
2023/07/10 09:21:35;;;;;;;11.15;5.30;;;;;;;36.20;32.03;98444.84;4396422;32;20138;-78
2023/07/10 09:24:05;;;;;;;10.63;5.55;;;;;;;36.13;32.82;98444.06;4409789;32;20120;-77
2023/07/10 09:26:38;;;;;;;9.90;5.35;;;;;;;36.11;32.51;98449.66;4409830;32;20073;-79
2023/07/10 09:29:14;;;;;;;10.45;5.15;;;;;;;36.43;32.74;98437.00;4397324;32;20063;-79
2023/07/10 09:32:02;;;;;;;13.55;5.40;;;;;;;36.42;32.38;98440.75;4410064;32;20124;-79
2023/07/10 09:34:32;;;;;;;10.18;5.20;;;;;;;35.91;33.11;98440.94;4409958;32;20066;-79
2023/07/10 09:36:59;;;;;;;10.77;5.22;;;;;;;36.12;34.28;98432.50;4410412;32;20078;-80
2023/07/10 09:39:32;;;;;;;10.20;5.22;;;;;;;36.27;32.83;98432.19;4409735;32;20105;-80
2023/07/10 09:42:02;;;;;;;11.02;5.12;;;;;;;36.68;33.22;98436.94;4410416;32;20100;-79
2023/07/10 09:44:37;;;;;;;10.52;5.25;;;;;;;36.32;32.47;98440.38;4410120;32;20082;-79
2023/07/10 09:47:15;;;;;;;9.23;5.40;;;;;;;35.85;33.53;98426.53;4397466;32;20066;-80
2023/07/10 09:49:57;;;;;;;10.13;5.60;;;;;;;36.00;34.00;98420.03;4410098;32;20126;-80
2023/07/10 09:52:31;;;;;;;12.07;5.78;;;;;;;36.25;33.78;98425.38;4394303;32;20164;-77
2023/07/10 09:54:59;;;;;;;12.10;5.35;;;;;;;36.62;32.63;98419.03;4407245;32;20058;-79
2023/07/10 09:57:26;;;;;;;12.57;5.78;;;;;;;36.73;32.51;98412.09;4410086;32;20111;-80
2023/07/10 10:00:27;;;;;;;10.07;5.80;;;;;;;36.92;32.79;98421.00;4409642;32;20104;-81
2023/07/10 10:03:02;;;;;;;12.90;5.93;;;;;;;36.52;33.21;98416.03;4410007;32;20086;-80
2023/07/10 10:05:29;;;;;;;11.23;5.93;;;;;;;36.65;34.13;98417.75;4409911;32;20127;-80
2023/07/10 10:08:02;;;;;;;10.98;5.25;;;;;;;37.02;32.86;98414.03;4409984;32;20091;-79
2023/07/10 10:10:37;;;;;;;11.43;5.43;;;;;;;37.19;32.11;98411.53;4408634;32;20098;-81
2023/07/10 10:13:26;;;;;;;12.68;5.95;;;;;;;37.01;32.44;98420.47;4396137;32;20070;-80
2023/07/10 10:16:06;;;;;;;10.35;5.40;;;;;;;36.19;33.14;98403.72;4395195;32;20083;-79
2023/07/10 10:18:49;;;;;;;11.68;5.62;;;;;;;36.20;33.69;98400.00;4393382;32;20091;-80
2023/07/10 10:21:18;;;;;;;11.00;5.65;;;;;;;36.47;33.29;98407.81;4390157;32;20062;-79
2023/07/10 10:23:47;;;;;;;14.38;5.28;;;;;;;36.53;33.53;98403.41;4405236;32;20073;-79
2023/07/10 10:26:38;;;;;;;11.52;5.18;;;;;;;36.37;33.80;98402.13;4409884;32;20101;-79
2023/07/10 10:29:18;;;;;;;10.57;5.68;;;;;;;36.59;33.17;98402.53;4409497;32;20055;-78
2023/07/10 10:32:08;;;;;;;11.75;5.75;;;;;;;36.64;33.13;98400.81;4396755;32;20120;-79
2023/07/10 10:34:50;;;;;;;10.85;5.65;;;;;;;35.96;32.76;98400.03;4409553;32;20100;-78
2023/07/10 10:37:24;;;;;;;10.35;4.93;;;;;;;36.42;32.78;98399.63;4397100;32;20118;-78
2023/07/10 10:40:03;;;;;;;10.30;5.03;;;;;;;36.49;32.08;98397.69;4409737;32;20154;-79
2023/07/10 10:42:46;;;;;;;10.30;5.20;;;;;;;36.67;32.59;98404.91;4409315;32;20058;-78
2023/07/10 10:45:27;;;;;;;9.85;5.50;;;;;;;36.67;32.26;98384.22;4409947;32;20089;-79
2023/07/10 10:48:04;;;;;;;9.98;5.35;;;;;;;36.60;32.86;98406.88;4384664;32;20126;-78
2023/07/10 10:51:14;;;;;;;11.40;5.90;;;;;;;36.04;32.99;98387.13;4409905;32;20063;-79
2023/07/10 10:54:20;;;;;;;9.35;5.53;;;;;;;36.57;33.45;98383.09;4397120;32;20095;-80
2023/07/10 10:56:59;;;;;;;10.77;5.47;;;;;;;36.77;32.16;98391.75;4388458;32;20121;-79
2023/07/10 11:00:14;;;;;;;12.75;5.47;;;;;;;36.62;31.84;98394.84;4409714;32;20110;-79
2023/07/10 11:03:04;;;;;;;9.98;5.40;;;;;;;36.62;31.74;98389.47;4401722;32;20186;-80
2023/07/10 11:05:38;;;;;;;11.80;5.53;;;;;;;36.84;31.14;98391.72;4396399;32;20077;-78
2023/07/10 11:08:25;;;;;;;11.38;5.68;;;;;;;37.59;30.46;98384.91;4409502;32;20062;-79
2023/07/10 11:10:54;;;;;;;10.68;5.68;;;;;;;37.38;31.44;98382.72;4395319;32;20075;-79
2023/07/10 11:13:31;;;;;;;11.50;5.37;;;;;;;37.45;31.14;98386.16;4393900;32;20110;-80
2023/07/10 11:16:00;;;;;;;11.95;5.57;;;;;;;37.23;31.35;98383.13;4391031;32;20083;-80
2023/07/10 11:18:28;;;;;;;9.38;5.43;;;;;;;37.29;32.05;98382.22;4406448;32;20437;-79
2023/07/10 11:20:56;;;;;;;10.23;5.62;;;;;;;37.59;30.97;98374.12;4396032;32;20071;-80
2023/07/10 11:23:41;;;;;;;11.50;5.18;;;;;;;37.08;31.57;98382.72;4392939;32;20063;-79
2023/07/10 11:26:12;;;;;;;12.00;5.82;;;;;;;37.50;30.30;98374.69;4404999;32;20159;-79
2023/07/10 11:29:23;;;;;;;10.73;5.40;;;;;;;37.41;30.82;98374.19;4382136;32;20090;-79
2023/07/10 11:31:55;;;;;;;11.20;5.50;;;;;;;36.89;31.76;98371.16;4404067;32;20078;-79
2023/07/10 11:34:22;;;;;;;10.30;5.90;;;;;;;36.87;30.36;98364.38;4397148;32;20121;-79
2023/07/10 11:36:50;;;;;;;10.73;5.30;;;;;;;36.70;31.19;98380.28;4408417;32;20098;-79
2023/07/10 11:39:40;;;;;;;10.10;5.37;;;;;;;37.18;31.12;98369.53;4405911;32;20093;-80
2023/07/10 11:42:15;;;;;;;10.10;5.47;;;;;;;37.44;31.24;98365.69;4407789;32;20095;-80
2023/07/10 11:44:54;;;;;;;9.95;5.50;;;;;;;37.27;32.39;98362.78;4408069;32;20074;-80